Time;durP1;ratioP1;P1;durP2;ratioP2;P2;SDS_P1;SDS_P2;PMS_P1;PMS_P2;Temp;Humidity;BMP_temperature;BMP_pressure;BME280_temperature;BME280_humidity;BME280_pressure;Samples;Min_cycle;Max_cycle;Signal;HPM_P1;HPM_P2
2021/04/03 00:02:31;;;;;;;24.92;5.10;;;;;;;7.17;78.89;102716.13;10523705;28;20036;-78
2021/04/03 00:07:31;;;;;;;18.55;4.30;;;;;;;6.56;76.20;102620.09;10507052;28;20465;-79
2021/04/03 00:12:32;;;;;;;20.73;3.83;;;;;;;6.91;72.43;102666.44;10495345;28;20493;-77
2021/04/03 00:17:32;;;;;;;23.38;3.80;;;;;;;7.07;70.30;102689.34;10501873;28;20040;-77
2021/04/03 00:22:33;;;;;;;15.30;3.15;;;;;;;7.18;68.57;102701.56;10469433;28;20132;-78
2021/04/03 00:27:34;;;;;;;17.17;3.10;;;;;;;7.02;68.45;102688.63;10499285;28;20076;-78
2021/04/03 00:32:34;;;;;;;17.95;2.90;;;;;;;7.07;69.35;102700.09;10515762;28;20031;-78
2021/04/03 00:37:35;;;;;;;16.88;3.83;;;;;;;7.16;69.71;102719.88;10457120;28;20122;-78
2021/04/03 00:42:35;;;;;;;11.38;2.83;;;;;;;6.93;69.95;102677.69;10506291;28;20036;-77
2021/04/03 00:47:36;;;;;;;17.33;3.60;;;;;;;7.09;70.70;102703.28;10499156;28;20458;-78
2021/04/03 00:52:37;;;;;;;14.73;3.00;;;;;;;6.69;71.82;102662.41;10483696;28;20055;-78
2021/04/03 00:57:38;;;;;;;17.65;3.15;;;;;;;6.96;72.79;102730.88;10471678;28;20080;-77
2021/04/03 01:02:39;;;;;;;13.13;2.50;;;;;;;6.90;72.63;102679.06;10486551;28;20584;-77
2021/04/03 01:07:41;;;;;;;21.47;4.07;;;;;;;7.08;72.30;102698.19;10474222;28;20036;-78
2021/04/03 01:12:50;;;;;;;18.77;3.65;;;;;;;6.89;72.29;102665.91;10515234;28;20047;-78
2021/04/03 01:18:09;;;;;;;20.63;3.05;;;;;;;7.02;73.07;102708.22;10527991;28;20031;-78
2021/04/03 01:23:34;;;;;;;15.25;3.13;;;;;;;6.84;73.08;102665.97;10543297;28;20119;-79
2021/04/03 01:29:02;;;;;;;17.75;2.85;;;;;;;7.12;73.21;102686.56;10538788;28;20081;-77
2021/04/03 01:34:04;;;;;;;14.35;2.58;;;;;;;6.89;73.74;102682.03;10553784;28;20055;-78
2021/04/03 01:39:07;;;;;;;20.38;2.95;;;;;;;6.83;74.48;102693.97;10535487;28;20452;-78
2021/04/03 01:44:11;;;;;;;16.52;2.92;;;;;;;7.03;73.86;102709.84;10536412;28;20035;-78
2021/04/03 01:49:14;;;;;;;21.63;4.22;;;;;;;6.64;73.54;102659.78;10545311;28;20670;-78
2021/04/03 01:54:14;;;;;;;;;;;;;;;6.82;74.24;102697.72;10540922;28;20436;-78
2021/04/03 01:59:15;;;;;;;20.27;3.50;;;;;;;6.65;73.21;102645.25;10520429;28;19912;-78
2021/04/03 02:04:16;;;;;;;18.23;3.08;;;;;;;6.92;72.76;102703.78;10513042;28;20118;-77
2021/04/03 02:09:17;;;;;;;16.20;3.45;;;;;;;6.81;71.36;102653.13;10514872;28;20516;-78
2021/04/03 02:14:18;;;;;;;17.08;3.40;;;;;;;7.02;70.66;102686.72;10535619;28;20043;-77
2021/04/03 02:19:20;;;;;;;18.67;3.17;;;;;;;7.11;69.78;102693.06;10515541;28;20036;-76
2021/04/03 02:24:20;;;;;;;18.10;3.45;;;;;;;7.07;69.86;102692.03;10537789;28;20509;-76
2021/04/03 02:29:22;;;;;;;15.57;3.97;;;;;;;6.99;69.33;102688.09;10534093;28;20036;-77
2021/04/03 02:34:22;;;;;;;23.25;3.53;;;;;;;6.88;69.54;102669.72;10543345;28;20039;-76
2021/04/03 02:39:23;;;;;;;27.58;3.78;;;;;;;7.07;68.74;102689.34;10512912;28;20035;-76
2021/04/03 02:44:30;;;;;;;17.63;3.03;;;;;;;6.67;68.95;102621.56;10524454;28;20036;-76
2021/04/03 02:50:04;;;;;;;19.33;3.78;;;;;;;7.18;68.13;102701.56;10528591;28;20035;-77
2021/04/03 02:55:05;;;;;;;22.05;3.75;;;;;;;7.00;67.97;102662.00;10516660;28;20404;-76
2021/04/03 03:00:06;;;;;;;23.90;4.75;;;;;;;6.94;67.36;102663.19;10527785;28;20052;-76
2021/04/03 03:05:08;;;;;;;19.73;3.70;;;;;;;7.08;66.72;102664.06;10560486;28;20036;-76
2021/04/03 03:10:09;;;;;;;19.77;3.67;;;;;;;7.11;66.75;102679.59;10555856;28;20048;-78
2021/04/03 03:15:10;;;;;;;20.35;3.28;;;;;;;7.34;65.74;102704.06;10512497;28;20048;-76
2021/04/03 03:20:12;;;;;;;17.25;3.30;;;;;;;7.28;65.17;102694.44;10484430;28;20041;-76
2021/04/03 03:25:13;;;;;;;24.50;3.35;;;;;;;7.33;65.19;102697.84;10518870;28;20484;-76
2021/04/03 03:30:19;;;;;;;22.95;4.00;;;;;;;7.07;65.60;102646.31;10492824;28;20054;-76
2021/04/03 03:35:20;;;;;;;17.33;3.30;;;;;;;7.32;66.16;102684.72;10521259;28;20032;-75
2021/04/03 03:40:21;;;;;;;21.48;3.90;;;;;;;7.20;66.56;102669.00;10503729;28;20040;-75
2021/04/03 03:45:21;;;;;;;24.10;4.03;;;;;;;6.94;67.67;102657.81;10499671;28;20391;-75
2021/04/03 03:50:22;;;;;;;20.80;3.53;;;;;;;7.12;67.61;102665.06;10504691;28;20040;-76
2021/04/03 03:55:23;;;;;;;35.70;4.95;;;;;;;7.34;66.98;102693.28;10524689;28;20040;-76
2021/04/03 04:00:23;;;;;;;18.55;3.15;;;;;;;7.16;66.91;102682.22;10523939;28;20473;-76
2021/04/03 04:05:24;;;;;;;24.25;5.00;;;;;;;6.99;65.53;102650.47;10526015;28;20043;-76
2021/04/03 04:10:24;;;;;;;28.33;3.95;;;;;;;7.13;66.19;102677.44;10520024;28;20070;-75
2021/04/03 04:15:25;;;;;;;21.58;3.67;;;;;;;7.16;65.63;102687.59;10509044;28;20127;-76
2021/04/03 04:20:25;;;;;;;16.27;3.67;;;;;;;6.96;64.43;102639.47;10488250;28;20040;-75
2021/04/03 04:25:26;;;;;;;23.15;3.13;;;;;;;7.19;64.45;102705.03;10521456;28;20028;-75
2021/04/03 04:30:29;;;;;;;21.38;4.40;;;;;;;7.03;65.17;102709.84;10509499;28;20040;-76
2021/04/03 04:35:30;;;;;;;18.88;3.55;;;;;;;7.17;64.45;102716.13;10514611;28;20032;-77
2021/04/03 04:40:30;;;;;;;19.63;3.67;;;;;;;7.00;64.51;102688.91;10514783;28;20035;-76
2021/04/03 04:45:31;;;;;;;16.55;3.38;;;;;;;7.20;64.57;102730.88;10521904;28;20028;-77
2021/04/03 04:50:31;;;;;;;23.55;4.10;;;;;;;7.16;64.17;102725.25;10522476;28;20068;-76
2021/04/03 04:55:33;;;;;;;29.33;4.88;;;;;;;7.05;65.08;102713.03;10521165;28;20050;-77
2021/04/03 05:00:33;;;;;;;21.08;3.67;;;;;;;7.08;64.68;102717.84;10521410;28;20047;-76
2021/04/03 05:05:34;;;;;;;17.85;3.83;;;;;;;7.15;65.09;102729.03;10513163;28;20372;-77
2021/04/03 05:10:34;;;;;;;18.05;2.90;;;;;;;6.56;65.22;102657.72;10513624;28;20132;-75
2021/04/03 05:15:35;;;;;;;18.05;2.60;;;;;;;7.12;65.17;102734.19;10555585;28;20069;-76
2021/04/03 05:20:35;;;;;;;18.45;3.45;;;;;;;7.19;64.96;102762.31;10531654;28;20122;-76
2021/04/03 05:25:36;;;;;;;16.67;2.90;;;;;;;7.14;64.09;102743.56;10554018;28;20036;-76
2021/04/03 05:30:36;;;;;;;18.65;3.40;;;;;;;6.83;63.99;102710.09;10539522;28;20165;-76
2021/04/03 05:35:37;;;;;;;21.25;3.50;;;;;;;7.17;64.06;102763.69;10560046;28;20039;-77
2021/04/03 05:40:37;;;;;;;18.60;3.47;;;;;;;7.17;64.16;102769.91;10530534;28;20127;-76
2021/04/03 05:45:38;;;;;;;21.40;3.47;;;;;;;7.30;64.08;102778.34;10550291;28;20027;-76
2021/04/03 05:50:42;;;;;;;14.50;3.38;;;;;;;7.23;63.62;102740.25;10533901;28;20123;-76
2021/04/03 05:55:42;;;;;;;20.73;3.83;;;;;;;6.95;63.83;102688.97;10553928;28;20540;-77
2021/04/03 06:00:42;;;;;;;25.73;3.60;;;;;;;7.18;64.16;102727.66;10529302;28;20058;-77
2021/04/03 06:05:43;;;;;;;24.05;3.70;;;;;;;7.38;64.48;102775.00;10552532;28;20040;-76
2021/04/03 06:11:12;;;;;;;33.05;4.68;;;;;;;7.46;64.48;102787.81;10536726;28;20032;-77
2021/04/03 06:16:36;;;;;;;18.48;4.40;;;;;;;7.23;64.76;102740.25;10549797;28;20039;-76
2021/04/03 06:21:37;;;;;;;26.92;4.40;;;;;;;7.31;65.05;102753.03;10556991;28;20036;-76
2021/04/03 06:26:38;;;;;;;18.87;2.97;;;;;;;7.75;63.74;102789.56;10531101;28;20051;-76
2021/04/03 06:31:39;;;;;;;19.92;3.47;;;;;;;7.57;63.42;102740.84;10551381;28;20039;-76
2021/04/03 06:36:45;;;;;;;19.65;3.78;;;;;;;8.05;60.98;102789.09;10543388;28;20174;-76
2021/04/03 06:41:45;;;;;;;17.52;2.90;;;;;;;8.10;59.56;102790.13;10554162;28;20123;-76
2021/04/03 06:46:46;;;;;;;24.02;4.13;;;;;;;8.10;59.57;102784.72;10564875;28;20866;-76
2021/04/03 06:51:47;;;;;;;17.75;3.70;;;;;;;8.24;60.11;102807.13;10547465;28;20040;-77
2021/04/03 06:56:48;;;;;;;19.95;4.18;;;;;;;8.15;61.92;102808.88;10531666;28;20039;-76
2021/04/03 07:01:50;;;;;;;24.63;5.20;;;;;;;8.16;63.30;102805.09;10530918;28;20063;-76
2021/04/03 07:06:50;;;;;;;30.08;4.95;;;;;;;7.94;64.16;102793.03;10540581;28;20032;-76
2021/04/03 07:11:54;;;;;;;26.85;5.10;;;;;;;8.12;64.13;102844.50;10542070;27;20048;-77
2021/04/03 07:16:55;;;;;;;30.90;5.45;;;;;;;8.08;65.18;102846.16;10535541;28;20468;-75
2021/04/03 07:21:55;;;;;;;30.77;4.28;;;;;;;8.02;64.63;102822.00;10548990;28;20096;-77
2021/04/03 07:26:56;;;;;;;26.60;5.40;;;;;;;7.91;65.04;102809.78;10534048;28;20035;-77
2021/04/03 07:31:56;;;;;;;23.90;4.38;;;;;;;8.38;64.41;102856.47;10541811;28;20468;-77
2021/04/03 07:36:57;;;;;;;24.85;4.30;;;;;;;8.33;63.88;102837.69;10557573;28;20742;-77
2021/04/03 07:41:57;;;;;;;21.40;3.60;;;;;;;8.60;63.01;102852.34;10550402;28;20371;-77
2021/04/03 07:47:17;;;;;;;20.95;4.72;;;;;;;8.51;63.19;102827.97;10533402;27;20535;-77
2021/04/03 07:52:53;;;;;;;20.92;4.40;;;;;;;9.17;61.11;102865.63;10544568;28;20135;-78
2021/04/03 07:57:53;;;;;;;22.35;4.07;;;;;;;9.31;60.79;102861.84;10557400;28;20093;-78
2021/04/03 08:02:54;;;;;;;19.27;4.43;;;;;;;9.68;59.86;102870.78;10529243;28;20480;-77
2021/04/03 08:07:57;;;;;;;17.55;3.97;;;;;;;9.80;58.53;102866.75;10540952;28;20088;-77
2021/04/03 08:12:58;;;;;;;19.13;4.00;;;;;;;11.03;55.51;102875.41;10520183;28;20089;-77
2021/04/03 08:17:58;;;;;;;17.05;3.95;;;;;;;12.76;49.97;102873.13;10537502;28;20164;-77
2021/04/03 08:23:04;;;;;;;25.30;4.10;;;;;;;11.71;49.71;102832.56;10545120;28;20504;-77
2021/04/03 08:28:23;;;;;;;23.50;4.13;;;;;;;11.56;51.46;102900.72;10563451;28;20338;-78
2021/04/03 08:33:23;;;;;;;23.27;4.88;;;;;;;11.67;51.59;102855.19;10564193;28;20043;-76
2021/04/03 08:38:25;;;;;;;17.67;4.40;;;;;;;12.45;49.13;102895.84;10560619;28;20465;-78
2021/04/03 08:43:27;;;;;;;31.58;4.32;;;;;;;11.69;51.60;102902.50;10550245;28;20032;-77
2021/04/03 08:48:34;;;;;;;19.25;4.10;;;;;;;12.85;48.56;102890.16;10552503;28;20031;-75
2021/04/03 08:53:50;;;;;;;19.30;4.00;;;;;;;13.73;45.85;102904.94;10538542;28;20032;-75
2021/04/03 08:58:52;;;;;;;19.70;4.18;;;;;;;13.37;46.04;102860.09;10556924;28;20460;-76
2021/04/03 09:03:56;;;;;;;20.17;4.28;;;;;;;13.69;45.96;102920.31;10531826;28;20039;-77
2021/04/03 09:09:10;;;;;;;19.42;3.80;;;;;;;12.90;47.38;102906.28;10553514;28;20034;-76
2021/04/03 09:14:10;;;;;;;20.60;4.78;;;;;;;13.26;46.87;102903.09;10531351;28;20113;-77
2021/04/03 09:19:11;;;;;;;25.38;4.25;;;;;;;12.56;48.69;102924.25;10555335;28;20097;-76
2021/04/03 09:24:12;;;;;;;21.25;3.92;;;;;;;12.46;47.65;102900.16;10562793;28;20052;-77
2021/04/03 09:29:12;;;;;;;18.80;3.72;;;;;;;12.11;49.10;102913.75;10554972;28;20040;-76
2021/04/03 09:34:17;;;;;;;21.85;3.85;;;;;;;11.30;50.96;102855.41;10547894;28;20106;-77
2021/04/03 09:39:19;;;;;;;29.55;5.68;;;;;;;11.54;51.47;102886.69;10556392;28;20131;-77
2021/04/03 09:44:20;;;;;;;14.80;3.38;;;;;;;12.88;48.33;102887.59;10545028;28;20031;-76
2021/04/03 09:49:20;;;;;;;19.52;4.32;;;;;;;12.98;48.16;102902.75;10548028;28;20495;-75
2021/04/03 09:54:21;;;;;;;12.77;3.33;;;;;;;14.16;45.99;102838.53;10530563;28;20041;-80
2021/04/03 09:59:22;;;;;;;18.05;4.20;;;;;;;17.27;40.11;102882.31;10548713;28;20146;-81
2021/04/03 10:04:23;;;;;;;19.45;3.40;;;;;;;19.43;33.52;102871.44;10521448;28;20057;-81
2021/04/03 10:09:24;;;;;;;20.90;4.75;;;;;;;18.49;34.28;102868.38;10554523;28;20392;-77
2021/04/03 10:14:27;;;;;;;14.93;3.60;;;;;;;17.04;36.61;102862.25;10524391;28;20445;-79
2021/04/03 10:19:27;;;;;;;22.95;5.38;;;;;;;14.97;40.18;102885.22;10533870;28;20059;-80
2021/04/03 10:24:28;;;;;;;17.70;3.88;;;;;;;15.60;40.67;102863.84;10558395;28;20114;-78
2021/04/03 10:29:29;;;;;;;15.05;3.20;;;;;;;17.16;37.41;102896.88;10544014;28;20042;-79
2021/04/03 10:34:30;;;;;;;15.63;5.03;;;;;;;16.28;38.16;102848.63;10510461;28;20069;-80
2021/04/03 10:39:30;;;;;;;19.85;4.22;;;;;;;15.58;39.99;102887.91;10533664;28;20047;-78
2021/04/03 10:44:31;;;;;;;20.75;4.32;;;;;;;15.23;40.89;102910.19;10545442;28;20032;-77
2021/04/03 10:49:33;;;;;;;22.23;5.05;;;;;;;14.75;41.58;102911.75;10507044;28;20400;-80
2021/04/03 10:54:36;;;;;;;15.85;3.63;;;;;;;13.82;43.59;102905.66;10515407;28;20130;-78
2021/04/03 10:59:37;;;;;;;17.67;3.75;;;;;;;13.76;43.64;102849.94;10517128;28;20115;-78
2021/04/03 11:04:37;;;;;;;16.90;3.58;;;;;;;14.40;42.49;102911.28;10540606;28;20397;-78
2021/04/03 11:09:38;;;;;;;12.88;4.05;;;;;;;13.82;42.58;102848.56;10555599;28;20405;-79
2021/04/03 11:14:38;;;;;;;14.05;3.95;;;;;;;14.22;40.98;102861.66;10501698;28;20064;-80
2021/04/03 11:19:39;;;;;;;21.27;3.38;;;;;;;14.63;41.55;102860.00;10514225;28;20115;-80
2021/04/03 11:24:39;;;;;;;18.55;3.38;;;;;;;14.82;41.68;102910.41;10516170;28;20093;-78
2021/04/03 11:29:40;;;;;;;18.00;3.47;;;;;;;15.20;40.58;102867.28;10502625;28;20498;-79
2021/04/03 11:34:41;;;;;;;17.60;3.97;;;;;;;15.29;40.64;102891.72;10514613;28;20035;-81
2021/04/03 11:39:44;;;;;;;20.75;3.85;;;;;;;14.79;41.77;102890.88;10498001;28;20046;-80
2021/04/03 11:44:44;;;;;;;24.17;5.60;;;;;;;14.01;44.86;102877.22;10515897;28;20465;-75
2021/04/03 11:49:45;;;;;;;21.73;4.53;;;;;;;14.35;45.05;102887.78;10503713;28;20085;-76
2021/04/03 11:54:48;;;;;;;23.27;5.15;;;;;;;14.25;44.79;102881.97;10495147;28;20036;-79
2021/04/03 11:59:48;;;;;;;;;;;;;;;14.13;44.82;102891.69;10500480;28;20051;-78
2021/04/03 12:04:48;;;;;;;27.48;5.18;;;;;;;14.01;44.90;102882.66;10530735;28;19927;-79
2021/04/03 12:09:51;;;;;;;27.27;5.50;;;;;;;13.70;46.83;102878.41;10500732;28;20048;-80
2021/04/03 12:14:52;;;;;;;23.60;4.55;;;;;;;13.40;47.66;102864.84;10500634;28;20056;-79
2021/04/03 12:19:52;;;;;;;22.40;5.57;;;;;;;13.00;49.58;102878.75;10501675;28;20041;-80
2021/04/03 12:24:52;;;;;;;16.70;3.97;;;;;;;13.28;48.44;102803.09;10455784;28;20036;-79
2021/04/03 12:29:53;;;;;;;20.30;4.95;;;;;;;13.66;47.81;102861.16;10478980;28;20090;-78
2021/04/03 12:34:53;;;;;;;30.17;6.32;;;;;;;13.96;47.04;102851.81;10456729;28;20056;-77
2021/04/03 12:39:54;;;;;;;24.08;5.38;;;;;;;13.48;48.38;102842.28;10494160;28;20063;-76
2021/04/03 12:44:54;;;;;;;20.40;4.75;;;;;;;14.00;45.02;102837.56;10487761;28;20045;-77
2021/04/03 12:49:55;;;;;;;25.85;4.22;;;;;;;13.95;46.41;102836.63;10495810;28;20119;-76
2021/04/03 12:54:55;;;;;;;23.60;4.82;;;;;;;14.09;45.17;102835.56;10481564;28;20036;-79
2021/04/03 12:59:58;;;;;;;19.40;3.72;;;;;;;14.10;43.42;102799.06;10473332;28;20036;-76
2021/04/03 13:04:58;;;;;;;;;;;;;;;14.26;44.99;102851.72;10510955;28;20051;-76
2021/04/03 13:09:59;;;;;;;27.73;4.80;;;;;;;14.42;45.39;102864.69;10490860;28;20247;-76
2021/04/03 13:14:59;;;;;;;20.30;4.68;;;;;;;14.58;44.76;102852.06;10526614;28;20626;-82
2021/04/03 13:20:00;;;;;;;20.40;5.50;;;;;;;14.28;43.96;102849.47;10531034;28;20114;-79
2021/04/03 13:25:00;;;;;;;18.77;3.53;;;;;;;14.18;43.39;102811.81;10539375;28;20032;-78
2021/04/03 13:30:06;;;;;;;18.80;4.50;;;;;;;14.66;43.14;102853.88;10533650;28;20039;-81
2021/04/03 13:35:07;;;;;;;24.15;4.80;;;;;;;14.00;44.97;102804.94;10535077;28;20468;-79
2021/04/03 13:40:08;;;;;;;14.90;4.13;;;;;;;14.25;44.84;102852.84;10517546;28;20036;-80
2021/04/03 13:45:09;;;;;;;22.60;4.00;;;;;;;13.65;44.35;102788.94;10546712;28;20047;-81
2021/04/03 13:50:10;;;;;;;21.40;4.82;;;;;;;13.75;43.96;102750.47;10515570;28;20036;-79
2021/04/03 13:55:11;;;;;;;23.17;5.72;;;;;;;13.37;47.75;102808.47;10564965;28;20027;-77
2021/04/03 14:00:12;;;;;;;27.52;6.10;;;;;;;13.03;49.98;102834.69;10536663;28;20061;-78
2021/04/03 14:05:13;;;;;;;26.48;5.90;;;;;;;12.96;50.18;102845.25;10537381;28;20054;-79
2021/04/03 14:10:13;;;;;;;34.00;5.45;;;;;;;12.08;51.68;102767.97;10530467;28;20721;-77
2021/04/03 14:15:14;;;;;;;21.58;5.07;;;;;;;12.61;51.93;102845.38;10520783;28;20055;-79
2021/04/03 14:20:17;;;;;;;27.92;4.90;;;;;;;12.26;51.28;102791.22;10494626;28;20443;-84
2021/04/03 14:25:24;;;;;;;25.40;5.05;;;;;;;12.81;51.01;102821.38;10526901;28;20028;-80
2021/04/03 14:37:43;;;;;;;;;;;;;;;;;;;;;
2021/04/03 14:49:26;;;;;;;26.13;5.40;;;;;;;12.55;50.65;102819.53;10513401;28;20043;-79
2021/04/03 14:54:55;;;;;;;23.05;5.60;;;;;;;12.59;50.16;102814.28;10427845;28;20054;-80
2021/04/03 15:00:13;;;;;;;21.17;4.50;;;;;;;11.81;50.38;102715.72;10486924;28;20074;-79
2021/04/03 15:05:54;;;;;;;24.80;5.18;;;;;;;12.31;48.79;102710.84;10542936;28;20035;-82
2021/04/03 15:11:22;;;;;;;;;;;;;;;;;;;;;
2021/04/03 15:17:11;;;;;;;26.98;5.65;;;;;;;12.23;49.68;102726.81;10495570;28;20140;-81
2021/04/03 15:22:37;;;;;;;26.75;4.63;;;;;;;11.55;49.22;102666.22;10497277;28;20039;-82
2021/04/03 15:28:51;;;;;;;;;;;;;;;;;;;;;
2021/04/03 15:34:24;;;;;;;21.77;5.15;;;;;;;12.45;48.58;102798.19;10536403;28;20063;-78
2021/04/03 15:40:29;;;;;;;;;;;;;;;;;;;;;
2021/04/03 15:45:38;;;;;;;22.17;4.63;;;;;;;12.09;49.58;102688.25;10529116;28;20180;-77
2021/04/03 15:51:38;;;;;;;;;;;;;;;;;;;;;
2021/04/03 15:56:42;;;;;;;23.65;5.63;;;;;;;11.83;47.42;102624.06;10548551;28;20032;-78
2021/04/03 16:02:00;;;;;;;20.98;5.50;;;;;;;12.78;47.75;102784.03;10546164;28;20028;-81
2021/04/03 16:07:02;;;;;;;26.98;4.60;;;;;;;12.19;47.50;102655.38;10515846;28;20051;-80
2021/04/03 16:12:03;;;;;;;22.53;5.40;;;;;;;13.04;48.34;102776.53;10524896;28;20051;-77
2021/04/03 16:17:04;;;;;;;23.42;5.32;;;;;;;12.84;47.16;102717.56;10548568;28;20429;-78
2021/04/03 16:22:04;;;;;;;19.25;5.05;;;;;;;13.08;46.53;102772.06;10481905;28;20661;-82
2021/04/03 16:27:06;;;;;;;19.15;5.15;;;;;;;12.27;49.02;102771.16;10518664;28;20036;-78
2021/04/03 16:32:06;;;;;;;27.33;4.82;;;;;;;11.46;49.53;102678.97;10522236;28;20043;-78
2021/04/03 16:37:07;;;;;;;25.85;5.20;;;;;;;11.65;51.45;102768.81;10534731;28;20032;-78
2021/04/03 16:42:07;;;;;;;22.00;5.35;;;;;;;11.63;51.31;102752.06;10544429;28;20039;-79
2021/04/03 16:47:08;;;;;;;24.52;4.70;;;;;;;11.44;51.66;102763.22;10527408;28;20566;-79
2021/04/03 16:52:09;;;;;;;21.77;4.63;;;;;;;11.32;52.52;102790.91;10563645;28;20107;-80
2021/04/03 16:57:11;;;;;;;28.63;5.05;;;;;;;11.17;52.67;102788.66;10536393;28;20656;-80
2021/04/03 17:02:12;;;;;;;26.60;4.43;;;;;;;11.25;52.47;102796.00;10540368;28;20157;-80
2021/04/03 17:07:12;;;;;;;26.30;5.90;;;;;;;10.95;52.36;102787.63;10536268;28;20044;-82
2021/04/03 17:12:13;;;;;;;29.58;5.18;;;;;;;10.55;53.04;102763.31;10532843;28;20195;-79
2021/04/03 17:17:13;;;;;;;26.65;4.47;;;;;;;10.34;54.50;102778.47;10557223;28;20088;-77
2021/04/03 17:22:14;;;;;;;24.67;5.13;;;;;;;10.29;54.27;102803.72;10521646;28;20032;-80
2021/04/03 17:27:15;;;;;;;22.27;4.10;;;;;;;9.89;55.41;102805.50;10532268;28;20094;-77
2021/04/03 17:32:17;;;;;;;23.98;4.53;;;;;;;9.26;55.72;102751.25;10537773;28;20130;-78
2021/04/03 17:37:18;;;;;;;28.33;4.87;;;;;;;9.59;56.20;102813.19;10512988;28;20111;-78
2021/04/03 17:42:18;;;;;;;27.05;4.35;;;;;;;9.27;57.38;102806.84;10534406;28;20031;-81
2021/04/03 17:47:19;;;;;;;25.65;4.45;;;;;;;9.14;58.52;102813.06;10549463;28;20046;-83
2021/04/03 17:52:19;;;;;;;22.10;4.30;;;;;;;9.09;59.20;102805.06;10550943;28;20403;-81
2021/04/03 17:57:20;;;;;;;18.90;4.25;;;;;;;8.87;60.39;102811.97;10498945;28;20723;-79
2021/04/03 18:02:21;;;;;;;24.98;5.03;;;;;;;7.88;61.26;102670.38;10527303;28;20043;-78
2021/04/03 18:07:21;;;;;;;20.33;4.93;;;;;;;8.60;62.27;102820.00;10514429;28;20177;-78
2021/04/03 18:12:22;;;;;;;18.23;4.90;;;;;;;8.64;62.65;102821.03;10520410;28;20040;-80
2021/04/03 18:17:23;;;;;;;30.10;5.53;;;;;;;8.26;64.32;102783.38;10525303;28;20032;-79
2021/04/03 18:22:26;;;;;;;35.05;4.45;;;;;;;8.01;64.54;102781.91;10517746;28;20043;-80
2021/04/03 18:27:27;;;;;;;27.83;5.82;;;;;;;8.25;65.24;102830.25;10490573;28;20020;-81
2021/04/03 18:32:28;;;;;;;22.30;4.78;;;;;;;7.12;65.52;102665.06;10539172;28;20032;-79
2021/04/03 18:37:31;;;;;;;20.10;4.45;;;;;;;7.74;66.54;102782.59;10513896;28;20042;-78
2021/04/03 18:42:34;;;;;;;26.23;5.30;;;;;;;7.89;66.29;102828.13;10533865;28;20111;-81
2021/04/03 18:47:36;;;;;;;26.15;5.05;;;;;;;7.92;66.66;102838.31;10518282;28;20035;-82
2021/04/03 18:52:37;;;;;;;21.33;5.27;;;;;;;7.91;66.04;102831.34;10511545;28;20070;-81
2021/04/03 18:57:38;;;;;;;24.73;5.43;;;;;;;7.63;66.84;102828.47;10551728;28;20494;-81
2021/04/03 19:02:40;;;;;;;17.77;4.85;;;;;;;7.19;67.44;102778.47;10513193;28;20092;-80
2021/04/03 19:07:40;;;;;;;25.63;5.65;;;;;;;7.45;68.25;102856.16;10510988;28;20042;-79
2021/04/03 19:12:42;;;;;;;28.52;5.03;;;;;;;6.89;68.23;102778.81;10551556;28;20048;-80
2021/04/03 19:17:43;;;;;;;23.13;4.22;;;;;;;7.43;68.27;102846.78;10553958;28;20204;-80
2021/04/03 19:22:43;;;;;;;24.02;4.63;;;;;;;7.42;68.26;102856.75;10553187;28;20503;-77
2021/04/03 19:27:44;;;;;;;21.90;4.68;;;;;;;7.35;68.66;102861.69;10554409;28;20046;-76
2021/04/03 19:32:44;;;;;;;21.50;5.07;;;;;;;7.33;67.97;102853.09;10559533;28;20043;-76
2021/04/03 19:37:45;;;;;;;22.38;4.72;;;;;;;6.84;68.44;102797.72;10552647;28;20116;-75
2021/04/03 19:42:45;;;;;;;17.83;3.92;;;;;;;7.08;67.97;102835.34;10540816;28;20044;-77
2021/04/03 19:47:46;;;;;;;15.65;3.45;;;;;;;7.04;68.30;102853.16;10525874;28;20047;-77
2021/04/03 19:52:46;;;;;;;24.92;4.53;;;;;;;7.06;67.22;102867.94;10548935;27;20043;-76
2021/04/03 19:57:47;;;;;;;17.48;3.97;;;;;;;6.80;67.27;102820.88;10548779;28;20044;-79
2021/04/03 20:02:47;;;;;;;25.58;4.50;;;;;;;6.39;67.65;102780.97;10506954;28;20103;-78
2021/04/03 20:07:49;;;;;;;18.00;4.18;;;;;;;6.93;67.29;102849.78;10516439;28;20080;-78
2021/04/03 20:12:49;;;;;;;21.38;3.47;;;;;;;6.81;67.90;102862.81;10561131;28;20051;-80
2021/04/03 20:17:51;;;;;;;22.77;4.05;;;;;;;6.91;68.49;102873.44;10538914;28;20032;-79
2021/04/03 20:22:52;;;;;;;25.50;4.47;;;;;;;6.49;68.89;102818.47;10505970;28;20421;-78
2021/04/03 20:27:53;;;;;;;25.77;3.83;;;;;;;6.63;69.76;102878.56;10563266;28;20076;-78
2021/04/03 20:32:53;;;;;;;22.83;5.22;;;;;;;6.03;70.44;102789.31;10518358;28;20051;-78
2021/04/03 20:37:54;;;;;;;20.15;3.90;;;;;;;6.29;70.63;102841.75;10507616;28;20636;-77
2021/04/03 20:42:55;;;;;;;18.13;4.20;;;;;;;6.55;70.41;102876.47;10536501;28;20097;-76
2021/04/03 20:47:56;;;;;;;25.85;4.43;;;;;;;6.42;71.01;102860.97;10558403;28;20100;-77
2021/04/03 20:52:56;;;;;;;20.98;4.25;;;;;;;6.10;70.72;102805.91;10520526;28;20847;-77
2021/04/03 20:57:57;;;;;;;22.45;3.92;;;;;;;6.49;71.37;102872.19;10521331;28;20034;-78
2021/04/03 21:02:58;;;;;;;24.50;3.83;;;;;;;6.35;70.90;102837.94;10536663;28;20035;-81
2021/04/03 21:07:59;;;;;;;17.95;4.03;;;;;;;6.17;70.64;102806.41;10505013;28;20445;-80
2021/04/03 21:13:01;;;;;;;27.25;4.10;;;;;;;6.23;70.34;102816.03;10547297;28;20058;-80
2021/04/03 21:18:02;;;;;;;20.90;3.87;;;;;;;6.33;71.04;102856.22;10557041;28;20047;-84
2021/04/03 21:23:02;;;;;;;17.80;3.75;;;;;;;6.19;70.90;102820.34;10532647;28;20297;-81
2021/04/03 21:28:03;;;;;;;21.45;4.50;;;;;;;6.04;71.12;102801.66;10552941;28;20047;-85
2021/04/03 21:33:04;;;;;;;27.30;4.57;;;;;;;5.99;70.76;102799.00;10553196;28;20138;-81
2021/04/03 21:38:05;;;;;;;22.35;4.40;;;;;;;6.42;69.45;102844.84;10533665;28;20672;-84
2021/04/03 21:43:05;;;;;;;24.00;3.67;;;;;;;6.08;69.53;102797.34;10516912;28;20068;-81
2021/04/03 21:48:06;;;;;;;20.20;4.30;;;;;;;6.52;69.39;102850.16;10554400;28;20694;-84
2021/04/03 21:53:07;;;;;;;21.85;4.72;;;;;;;6.17;68.57;102801.03;10534944;28;20464;-87
2021/04/03 21:58:07;;;;;;;19.45;4.72;;;;;;;6.72;67.33;102849.97;10549404;28;20243;-86
2021/04/03 22:03:12;;;;;;;22.60;4.50;;;;;;;6.31;67.21;102799.28;10553807;28;20707;-85
2021/04/03 22:08:14;;;;;;;11.60;4.05;;;;;;;6.86;66.48;102854.69;10527477;28;20039;-88
2021/04/03 22:13:15;;;;;;;24.67;4.97;;;;;;;6.90;65.60;102839.59;10528564;28;20081;-84
2021/04/03 22:18:16;;;;;;;20.58;4.07;;;;;;;6.86;65.83;102830.50;10575271;28;20583;-84
2021/04/03 22:23:16;;;;;;;24.88;4.22;;;;;;;6.71;66.23;102802.69;10538152;28;20145;-82
2021/04/03 22:28:17;;;;;;;18.98;3.78;;;;;;;6.92;66.95;102842.81;10555284;28;20031;-81
2021/04/03 22:33:17;;;;;;;19.02;4.30;;;;;;;7.08;65.49;102825.41;10521548;28;20535;-82
2021/04/03 22:38:18;;;;;;;16.63;3.70;;;;;;;7.17;65.10;102847.91;10551727;28;20034;-86
2021/04/03 22:43:18;;;;;;;18.10;4.15;;;;;;;6.93;65.87;102833.63;10532017;28;20032;-78
2021/04/03 22:48:19;;;;;;;20.95;4.45;;;;;;;6.32;66.17;102755.22;10553302;28;20036;-78
2021/04/03 22:53:24;;;;;;;16.90;4.40;;;;;;;6.89;65.95;102854.09;10519315;28;20113;-79
2021/04/03 22:58:26;;;;;;;24.85;4.85;;;;;;;6.67;66.16;102833.88;10541468;28;20050;-77
2021/04/03 23:03:29;;;;;;;18.55;4.53;;;;;;;6.75;65.84;102817.16;10538496;28;20035;-78
2021/04/03 23:08:30;;;;;;;20.45;4.40;;;;;;;6.97;65.56;102850.81;10534149;28;20035;-80
2021/04/03 23:13:30;;;;;;;26.65;4.32;;;;;;;6.50;65.95;102777.09;10554261;28;20058;-80
2021/04/03 23:18:31;;;;;;;27.42;4.43;;;;;;;6.96;66.29;102843.81;10536009;28;20036;-80
2021/04/03 23:23:31;;;;;;;20.08;4.75;;;;;;;6.96;66.10;102854.56;10564901;28;20035;-79
2021/04/03 23:28:32;;;;;;;22.50;4.40;;;;;;;6.53;66.87;102788.06;10560776;27;20036;-79
2021/04/03 23:33:34;;;;;;;16.73;3.95;;;;;;;6.65;66.83;102806.50;10553244;28;20048;-79
2021/04/03 23:38:34;;;;;;;15.07;4.40;;;;;;;6.80;67.26;102834.31;10559938;28;20062;-78